• Join FlightAware (Why Join?)
  • Login
  • US Flag 
07:09AM EDT


 

Airport Tracker/Info


-or-


 

Live Flight TrackerFlight Track Log ✈ AWE1821 ✈ 01-Jul-2013 ✈ KPHL - KIAH

Flight Track Log - Related Links

Times and Time Zones

All times are in EDT time to prevent confusion due to time zone crossing. See the AWE1821 flight status page for this flight to view local times or setup timezone preferences in your user account.

Time Position Orientation Groundspeed Altitude Reporting Facility
EDT Latitude Longitude Course Direction KTS MPH feet Rate Location/Type
10:04AM 39.8833 -75.2167 270° West 163 188 800  Level Philadelphia TRACON
10:05AM 39.9000 -75.1333 75° East 246 283 2,000 1,800 Climbing Philadelphia TRACON
10:07AM 39.8349 -75.6454 247° West  Level FlightAware Approximate
10:08AM 39.8329 -75.7858 258° West  Level FlightAware Approximate
10:08AM 39.9767 -75.1864 332° Northwest 183 211 7,100  Level New York Center
10:09AM 39.8100 -75.9234 258° West  Level FlightAware Approximate
10:09AM 39.9567 -75.2772 254° West 232 267 9,900  Level New York Center
10:10AM 39.8000 -76.0628 270° West  Level FlightAware Approximate
10:10AM 39.9336 -75.3839 254° West 265 305 11,100  Level New York Center
10:11AM 39.9108 -75.4853 254° West 313 360 12,000 420 Climbing New York Center
10:12AM 39.8808 -75.6078 252° West 324 373 12,000 840 Level New York Center
10:13AM 39.8553 -75.7222 254° West 335 386 13,700 1,680 Climbing New York Center
10:14AM 39.8133 -75.8275 243° Southwest 340 391 15,500 1,800 Climbing New York Center
10:15AM 39.7569 -75.9258 233° Southwest 335 386 17,400 1,740 Climbing New York Center
10:16AM 39.6647 -76.0983 235° Southwest 365 420 20,200 1,500 Climbing Washington Center
10:17AM 39.6081 -76.1947 233° Southwest 370 426 21,400 1,260 Climbing Washington Center
10:18AM 39.5447 -76.3019 233° Southwest 370 426 22,800 1,260 Climbing Washington Center
10:19AM 39.4817 -76.4142 234° Southwest 377 434 24,000 1,140 Climbing Washington Center
10:20AM 39.4183 -76.5292 235° Southwest 389 448 25,100 1,320 Climbing Washington Center
10:21AM 39.3547 -76.6411 234° Southwest 395 455 26,600 1,140 Climbing Washington Center
10:22AM 39.2914 -76.7556 234° Southwest 395 455 27,500 780 Climbing Washington Center
10:23AM 39.2256 -76.8694 233° Southwest 401 461 28,200 840 Climbing Washington Center
10:24AM 39.1575 -76.9861 233° Southwest 407 468 29,300 900 Climbing Washington Center
10:25AM 39.0914 -77.1025 234° Southwest 407 468 30,000 300 Climbing Washington Center
10:26AM 39.0253 -77.2161 233° Southwest 407 468 30,000  Level Washington Center
10:27AM 38.9572 -77.3319 233° Southwest 407 468 30,000  Level Washington Center
10:28AM 38.8908 -77.4478 234° Southwest 407 468 30,000  Level Washington Center
10:29AM 38.8181 -77.5633 231° Southwest 407 468 30,000  Level Washington Center
10:30AM 38.7450 -77.6917 234° Southwest 424 488 30,000  Level Washington Center
10:32AM 38.6114 -77.9244 234° Southwest 422 486 30,000  Level Washington Center
10:33AM 38.5403 -78.0444 233° Southwest 422 486 30,000  Level Washington Center
10:34AM 38.4731 -78.1614 234° Southwest 422 486 30,000  Level Washington Center
10:36AM 38.3985 -78.2723 229° Southwest  Level FlightAware Approximate
10:37AM 38.2631 -78.5086 234° Southwest 422 486 30,000  Level Washington Center
10:38AM 38.1931 -78.6353 235° Southwest 417 480 30,000  Level Washington Center
10:39AM 38.1233 -78.7486 232° Southwest 417 480 30,000  Level Washington Center
10:40AM 38.0578 -78.8592 233° Southwest 412 474 30,000  Level Washington Center
10:42AM 37.9247 -79.0747 232° Southwest 407 468 30,000  Level Washington Center
10:43AM 37.9333 -79.0415 234° Southwest  Level FlightAware Approximate
10:43AM 37.8606 -79.1953 236° Southwest 412 474 30,000  Level Washington Center
10:44AM 37.8003 -79.3211 239° Southwest 417 480 30,000  Level Washington Center
10:45AM 37.7336 -79.4544 238° Southwest 417 480 30,000  Level Washington Center
10:46AM 37.6756 -79.5669 237° Southwest 424 488 30,000  Level Washington Center
10:47AM 37.6064 -79.7022 237° Southwest 424 488 30,000  Level Washington Center
10:48AM 37.5528 -79.8094 238° Southwest 424 488 30,000  Level Washington Center
10:51AM 37.4142 -80.0753 237° Southwest 424 488 30,000  Level Atlanta Center
10:52AM 37.3475 -80.2092 238° Southwest 424 488 30,000  Level Atlanta Center
10:53AM 37.2867 -80.3269 237° Southwest 424 488 30,000  Level Atlanta Center
10:54AM 37.2217 -80.4525 237° Southwest 424 488 30,000  Level Atlanta Center
10:55AM 37.1625 -80.5697 238° Southwest 419 482 30,000  Level Atlanta Center
10:57AM 37.0530 -80.7914 247° West  Level FlightAware Approximate
10:57AM 37.0522 -80.8061 247° West 419 482 30,000  Level Atlanta Center
10:58AM 37.0053 -80.9356 246° West 419 482 30,000  Level Atlanta Center
10:59AM 36.9547 -81.0803 246° West 414 476 30,000  Level Atlanta Center
11:00AM 36.9078 -81.2119 246° West 414 476 30,000  Level Atlanta Center
11:01AM 36.8608 -81.3433 246° West 414 476 30,000  Level Atlanta Center
11:02AM 36.8133 -81.4719 245° Southwest 408 470 30,000  Level Atlanta Center
11:03AM 36.7722 -81.6003 248° West 408 470 30,000  Level Atlanta Center
11:04AM 36.7228 -81.7311 245° Southwest 403 464 30,000  Level Atlanta Center
11:05AM 36.6750 -81.8542 244° Southwest 403 464 30,000  Level Atlanta Center
11:06AM 36.6292 -81.9822 246° West 403 464 30,000  Level Atlanta Center
11:07AM 36.5833 -82.1128 246° West 403 464 30,000  Level Atlanta Center
11:08AM 36.5392 -82.2247 244° Southwest 403 464 30,000  Level Atlanta Center
11:09AM 36.4908 -82.3525 245° Southwest 403 464 30,000  Level Atlanta Center
11:10AM 36.4447 -82.4772 245° Southwest 403 464 30,000  Level Atlanta Center
11:11AM 36.3961 -82.6047 245° Southwest 403 464 30,000  Level Atlanta Center
11:12AM 36.3494 -82.7292 245° Southwest 403 464 30,000  Level Atlanta Center
11:13AM 36.3028 -82.8561 246° West 403 464 30,000  Level Atlanta Center
11:14AM 36.2539 -82.9806 244° Southwest 403 464 30,000  Level Atlanta Center
11:15AM 36.2069 -83.1072 245° Southwest 403 464 30,000  Level Atlanta Center
11:16AM 36.1536 -83.2442 244° Southwest 403 464 30,000  Level Atlanta Center
11:17AM 36.1064 -83.3681 245° Southwest 403 464 30,000  Level Atlanta Center
11:18AM 36.0592 -83.4942 245° Southwest 403 464 30,000  Level Atlanta Center
11:19AM 36.0200 -83.6047 246° West 403 464 30,000  Level Atlanta Center
11:20AM 35.9722 -83.7258 244° Southwest 403 464 30,000  Level Atlanta Center
11:21AM 35.9247 -83.8489 245° Southwest 403 464 30,000  Level Atlanta Center
11:22AM 35.8622 -83.9567 234° Southwest 398 458 30,000  Level Atlanta Center
11:23AM 35.7892 -84.0567 228° Southwest 398 458 30,000  Level Atlanta Center
11:24AM 35.7183 -84.1564 229° Southwest 398 458 30,000  Level Atlanta Center
11:25AM 35.6492 -84.2558 229° Southwest 393 452 30,000  Level Atlanta Center
11:26AM 35.5761 -84.3528 227° Southwest 387 445 30,000  Level Atlanta Center
11:27AM 35.4986 -84.4622 229° Southwest 387 445 30,000  Level Atlanta Center
11:28AM 35.4272 -84.5611 228° Southwest 387 445 30,000  Level Atlanta Center
11:29AM 35.3578 -84.6575 229° Southwest 387 445 30,000  Level Atlanta Center
11:30AM 35.2864 -84.7564 229° Southwest 387 445 30,000  Level Atlanta Center
11:31AM 35.2128 -84.8547 228° Southwest 387 445 30,000  Level Atlanta Center
11:32AM 35.1411 -84.9506 228° Southwest 387 445 30,000  Level Atlanta Center
11:33AM 35.0694 -85.0489 228° Southwest 387 445 30,000  Level Atlanta Center
11:34AM 34.9978 -85.1467 228° Southwest 387 445 30,000  Level Atlanta Center
11:35AM 34.9258 -85.2422 227° Southwest 387 445 30,000  Level Atlanta Center
11:36AM 34.8558 -85.3397 229° Southwest 387 445 30,000  Level Atlanta Center
11:38AM 34.7097 -85.5322 227° Southwest 387 445 30,000  Level Atlanta Center
11:39AM 34.6397 -85.6294 229° Southwest 387 445 30,000  Level Atlanta Center
11:40AM 34.5675 -85.7264 228° Southwest 387 445 30,000  Level Atlanta Center
11:41AM 34.5081 -85.8033 227° Southwest 387 445 30,000  Level Atlanta Center
11:42AM 34.4333 -85.9050 228° Southwest 382 440 30,000  Level Atlanta Center
11:43AM 34.3589 -86.0014 227° Southwest 387 445 30,000  Level Atlanta Center
11:44AM 34.2864 -86.0978 228° Southwest 387 445 30,000  Level Atlanta Center
11:45AM 34.2139 -86.1917 227° Southwest 387 445 30,000  Level Atlanta Center
11:46AM 34.1411 -86.2875 227° Southwest 387 445 30,000  Level Atlanta Center
11:47AM 34.0664 -86.3808 226° Southwest 387 445 30,000  Level Atlanta Center
11:48AM 33.9956 -86.4767 228° Southwest 387 445 30,000  Level Atlanta Center
11:49AM 33.9228 -86.5722 227° Southwest 387 445 30,000  Level Atlanta Center
11:50AM 33.8497 -86.6653 227° Southwest 387 445 30,000  Level Atlanta Center
11:51AM 33.7767 -86.7603 227° Southwest 387 445 30,000  Level Atlanta Center
11:52AM 33.7036 -86.8556 227° Southwest 387 445 30,000  Level Atlanta Center
11:53AM 33.6403 -86.9706 237° Southwest 387 445 30,000  Level Atlanta Center
11:54AM 33.6019 -87.0942 250° West 382 440 30,000  Level Atlanta Center
11:55AM 33.5592 -87.2172 247° West 394 453 30,000  Level Atlanta Center
11:59AM 33.3950 -87.6975 248° West 377 434 30,000  Level Memphis Center
12:00PM 33.3536 -87.8181 248° West 383 441 30,000  Level Memphis Center
12:01PM 33.3122 -87.9386 248° West 388 447 30,000  Level Memphis Center
12:02PM 33.2686 -88.0589 247° West 388 447 30,000  Level Memphis Center
12:03PM 33.2269 -88.1792 248° West 388 447 30,000  Level Memphis Center
12:04PM 33.1850 -88.2969 247° West 388 447 30,000  Level Memphis Center
12:05PM 33.1347 -88.4147 243° Southwest 394 453 30,000  Level Memphis Center
12:06PM 33.0861 -88.5200 241° Southwest 404 465 30,000  Level Memphis Center
12:08PM 32.9831 -88.7550 242° Southwest 404 465 30,000  Level Memphis Center
12:09PM 32.9322 -88.8747 243° Southwest 404 465 30,000  Level Memphis Center
12:10PM 32.8814 -88.9917 243° Southwest 404 465 30,000  Level Memphis Center
12:12PM 32.7733 -89.2306 242° Southwest 410 472 30,000  Level Memphis Center
12:14PM 32.6667 -89.4739 243° Southwest 410 472 30,000  Level Memphis Center
12:15PM 32.6131 -89.5903 241° Southwest 410 472 30,000  Level Memphis Center
12:16PM 32.5575 -89.7139 242° Southwest 415 478 30,000  Level Memphis Center
12:17PM 32.5017 -89.8325 241° Southwest 415 478 30,000  Level Memphis Center
12:18PM 32.4500 -89.9536 243° Southwest 415 478 30,000  Level Memphis Center
12:20PM 32.3419 -90.1950 242° Southwest 415 478 30,000  Level Memphis Center
12:21PM 32.2858 -90.3106 240° Southwest 415 478 30,000  Level Memphis Center
12:22PM 32.2336 -90.4311 243° Southwest 415 478 30,000  Level Memphis Center
12:23PM 32.1769 -90.5486 240° Southwest 415 478 30,000  Level Memphis Center
12:24PM 32.1022 -90.7131 242° Southwest 417 480 30,000  Level Houston Center
12:25PM 32.0453 -90.8389 242° Southwest 420 483 30,000  Level Houston Center
12:26PM 31.9900 -90.9578 241° Southwest 417 480 30,000  Level Houston Center
12:28PM 31.8636 -91.2219 241° Southwest 422 486 30,000  Level Houston Center
12:29PM 31.8072 -91.3419 241° Southwest 421 484 30,000  Level Houston Center
12:30PM 31.7525 -91.4631 242° Southwest 420 483 30,000  Level Houston Center
12:31PM 31.6958 -91.5811 241° Southwest 417 480 30,000  Level Houston Center
12:32PM 31.6406 -91.7019 242° Southwest 420 483 30,000  Level Houston Center
12:33PM 31.5744 -91.8439 241° Southwest 415 478 30,000  Level Houston Center
12:34PM 31.5169 -91.9622 240° Southwest 416 479 30,000  Level Houston Center
12:35PM 31.4617 -92.0733 240° Southwest 419 482 30,000  Level Houston Center
12:36PM 31.4053 -92.1922 241° Southwest 419 482 30,000  Level Houston Center
12:37PM 31.3369 -92.3333 240° Southwest 417 480 30,000  Level Houston Center
12:38PM 31.2789 -92.4522 240° Southwest 422 486 30,000  Level Houston Center
12:39PM 31.2164 -92.5697 238° Southwest 426 490 30,000  Level Houston Center
12:41PM 31.1531 -92.6861 238° Southwest 424 488 30,000  Level Houston Center
12:42PM 31.0886 -92.8014 237° Southwest 425 489 30,000  Level Houston Center
12:44PM 30.9722 -92.9999 236° Southwest  Level FlightAware Approximate
12:44PM 30.9450 -93.0556 236° Southwest 428 493 30,000  Level Houston Center
12:45PM 30.8806 -93.1711 237° Southwest 428 493 30,000  Level Houston Center
12:46PM 30.8153 -93.2869 237° Southwest 429 494 30,000  Level Houston Center
12:47PM 30.7514 -93.4006 237° Southwest 425 489 30,000 -1,440 Level Houston Center
12:49PM 30.6372 -93.5756 240° Southwest  Level FlightAware Approximate
12:49PM 30.6111 -93.6464 240° Southwest 419 482 25,700  Level Houston Center
12:50PM 30.5508 -93.7547 237° Southwest 413 475 23,600 -2,040 Descending Houston Center
12:51PM 30.4886 -93.8603 236° Southwest 400 460 21,600 -1,980 Descending Houston Center
12:52PM 30.4331 -93.9578 237° Southwest 380 437 19,600 -2,100 Descending Houston Center
12:53PM 30.3506 -94.0997 236° Southwest 367 422 16,800 -2,040 Descending Houston Center
12:54PM 30.3083 -94.1728 236° Southwest 366 421 15,400 -1,860 Descending Houston Center
12:55PM 30.2339 -94.2992 236° Southwest 355 409 13,000 -1,680 Descending Houston Center
12:56PM 30.1994 -94.3608 237° Southwest 349 402 12,000 -1,260 Descending Houston Center
12:57PM 30.1689 -94.4569 250° West 320 368 10,800 -1,140 Descending Houston Center
12:58PM 30.1289 -94.5792 249° West 293 337 9,400 -1,020 Descending Houston Center
12:59PM 30.1083 -94.6414 249° West 293 337 8,700 -1,080 Descending Houston Center
01:00PM 30.0744 -94.7528 251° West 286 329 7,300 -1,080 Descending Houston Center
01:01PM 30.0625 -94.8156 258° West 283 326 6,500 -1,020 Descending Houston Center
01:02PM 30.0436 -94.9042 256° West 284 327 5,500 -1,080 Descending Houston Center
01:03PM 30.0228 -95.0078 257° West 279 321 4,300 -1,020 Descending Houston Center
01:04PM 30.0036 -95.0911 255° West 273 314 3,400 -900 Descending Houston Center